sensor_id;sensor_type;location;lat;lon;timestamp;temperature;humidity
8676;DHT22;4375;52.486;13.424;2022-11-03T00:00:28;8.50;99.90
8676;DHT22;4375;52.486;13.424;2022-11-03T00:02:54;8.40;99.90
8676;DHT22;4375;52.486;13.424;2022-11-03T00:05:20;8.50;99.90
8676;DHT22;4375;52.486;13.424;2022-11-03T00:08:05;8.50;99.90
8676;DHT22;4375;52.486;13.424;2022-11-03T00:10:31;8.40;99.90
8676;DHT22;4375;52.486;13.424;2022-11-03T00:12:57;8.40;99.90
8676;DHT22;4375;52.486;13.424;2022-11-03T00:15:22;8.50;99.90
8676;DHT22;4375;52.486;13.424;2022-11-03T00:17:48;8.40;99.90
8676;DHT22;4375;52.486;13.424;2022-11-03T00:20:13;8.50;99.90
8676;DHT22;4375;52.486;13.424;2022-11-03T00:22:39;8.40;99.90
8676;DHT22;4375;52.486;13.424;2022-11-03T00:25:05;8.40;99.90
8676;DHT22;4375;52.486;13.424;2022-11-03T00:27:31;8.40;99.90
8676;DHT22;4375;52.486;13.424;2022-11-03T00:29:56;8.40;99.90
8676;DHT22;4375;52.486;13.424;2022-11-03T00:32:22;8.40;99.90
8676;DHT22;4375;52.486;13.424;2022-11-03T00:34:47;8.40;99.90
8676;DHT22;4375;52.486;13.424;2022-11-03T00:37:13;8.40;99.90
8676;DHT22;4375;52.486;13.424;2022-11-03T00:39:39;8.40;99.90
8676;DHT22;4375;52.486;13.424;2022-11-03T00:42:04;8.40;99.90
8676;DHT22;4375;52.486;13.424;2022-11-03T00:44:30;8.40;99.90
8676;DHT22;4375;52.486;13.424;2022-11-03T00:46:56;8.40;99.90
8676;DHT22;4375;52.486;13.424;2022-11-03T00:49:21;8.40;99.90
8676;DHT22;4375;52.486;13.424;2022-11-03T00:51:47;8.40;99.90
8676;DHT22;4375;52.486;13.424;2022-11-03T00:54:12;8.30;99.90
8676;DHT22;4375;52.486;13.424;2022-11-03T00:56:40;8.30;99.90
8676;DHT22;4375;52.486;13.424;2022-11-03T00:59:08;8.30;99.90
8676;DHT22;4375;52.486;13.424;2022-11-03T01:01:40;8.30;99.90
8676;DHT22;4375;52.486;13.424;2022-11-03T01:04:06;8.30;99.90
8676;DHT22;4375;52.486;13.424;2022-11-03T01:06:52;8.30;99.90
8676;DHT22;4375;52.486;13.424;2022-11-03T01:12:06;8.10;99.90
8676;DHT22;4375;52.486;13.424;2022-11-03T01:14:36;8.00;99.90
8676;DHT22;4375;52.486;13.424;2022-11-03T01:17:07;8.10;99.90
8676;DHT22;4375;52.486;13.424;2022-11-03T01:19:33;8.10;99.90
8676;DHT22;4375;52.486;13.424;2022-11-03T01:21:58;8.00;99.90
8676;DHT22;4375;52.486;13.424;2022-11-03T01:24:24;8.00;99.90
8676;DHT22;4375;52.486;13.424;2022-11-03T01:26:49;8.00;99.90
8676;DHT22;4375;52.486;13.424;2022-11-03T01:29:15;8.00;99.90
8676;DHT22;4375;52.486;13.424;2022-11-03T01:31:41;8.10;99.90
8676;DHT22;4375;52.486;13.424;2022-11-03T01:34:15;8.00;99.90
8676;DHT22;4375;52.486;13.424;2022-11-03T01:36:42;8.00;99.90
8676;DHT22;4375;52.486;13.424;2022-11-03T01:39:13;8.00;99.90
8676;DHT22;4375;52.486;13.424;2022-11-03T01:41:39;7.90;99.90
8676;DHT22;4375;52.486;13.424;2022-11-03T01:50:05;7.80;99.90
8676;DHT22;4375;52.486;13.424;2022-11-03T01:55:11;7.80;99.90
8676;DHT22;4375;52.486;13.424;2022-11-03T01:57:54;7.80;99.90
8676;DHT22;4375;52.486;13.424;2022-11-03T02:00:22;7.80;99.90
8676;DHT22;4375;52.486;13.424;2022-11-03T02:02:48;7.80;99.90
8676;DHT22;4375;52.486;13.424;2022-11-03T02:05:15;7.80;99.90
8676;DHT22;4375;52.486;13.424;2022-11-03T02:07:49;7.80;99.90
8676;DHT22;4375;52.486;13.424;2022-11-03T02:10:17;7.80;99.90
8676;DHT22;4375;52.486;13.424;2022-11-03T02:12:43;7.80;99.90
8676;DHT22;4375;52.486;13.424;2022-11-03T02:15:11;7.70;99.90
8676;DHT22;4375;52.486;13.424;2022-11-03T02:17:38;7.70;99.90
8676;DHT22;4375;52.486;13.424;2022-11-03T02:20:09;7.70;99.90
8676;DHT22;4375;52.486;13.424;2022-11-03T02:23:06;7.60;99.90
8676;DHT22;4375;52.486;13.424;2022-11-03T02:25:57;7.60;99.90
8676;DHT22;4375;52.486;13.424;2022-11-03T02:28:26;7.50;99.90
8676;DHT22;4375;52.486;13.424;2022-11-03T02:36:28;7.40;99.90
8676;DHT22;4375;52.486;13.424;2022-11-03T02:38:59;7.40;99.90
8676;DHT22;4375;52.486;13.424;2022-11-03T02:41:26;7.50;99.90
8676;DHT22;4375;52.486;13.424;2022-11-03T02:43:55;7.40;99.90
8676;DHT22;4375;52.486;13.424;2022-11-03T02:46:23;7.40;99.90
8676;DHT22;4375;52.486;13.424;2022-11-03T02:48:51;7.50;99.90
8676;DHT22;4375;52.486;13.424;2022-11-03T02:51:16;7.60;99.90
8676;DHT22;4375;52.486;13.424;2022-11-03T02:53:47;7.60;99.90
8676;DHT22;4375;52.486;13.424;2022-11-03T02:56:19;7.60;99.90
8676;DHT22;4375;52.486;13.424;2022-11-03T02:59:01;7.60;99.90
8676;DHT22;4375;52.486;13.424;2022-11-03T03:01:34;7.60;99.90
8676;DHT22;4375;52.486;13.424;2022-11-03T03:04:07;7.60;99.90
8676;DHT22;4375;52.486;13.424;2022-11-03T03:09:02;7.50;99.90
8676;DHT22;4375;52.486;13.424;2022-11-03T03:11:29;7.50;99.90
8676;DHT22;4375;52.486;13.424;2022-11-03T03:14:15;7.50;99.90
8676;DHT22;4375;52.486;13.424;2022-11-03T03:17:00;7.50;99.90
8676;DHT22;4375;52.486;13.424;2022-11-03T03:19:36;7.50;99.90
8676;DHT22;4375;52.486;13.424;2022-11-03T03:22:13;7.50;99.90
8676;DHT22;4375;52.486;13.424;2022-11-03T03:25:14;7.40;99.90
8676;DHT22;4375;52.486;13.424;2022-11-03T03:27:46;7.50;99.90
8676;DHT22;4375;52.486;13.424;2022-11-03T03:30:13;7.50;99.90
8676;DHT22;4375;52.486;13.424;2022-11-03T03:32:47;7.50;99.90
8676;DHT22;4375;52.486;13.424;2022-11-03T03:35:19;7.50;99.90
8676;DHT22;4375;52.486;13.424;2022-11-03T03:37:49;7.50;99.90
8676;DHT22;4375;52.486;13.424;2022-11-03T03:40:22;7.50;99.90
8676;DHT22;4375;52.486;13.424;2022-11-03T03:42:51;7.50;99.90
8676;DHT22;4375;52.486;13.424;2022-11-03T03:45:18;7.40;99.90
8676;DHT22;4375;52.486;13.424;2022-11-03T03:47:44;7.40;99.90
8676;DHT22;4375;52.486;13.424;2022-11-03T03:50:10;7.50;99.90
8676;DHT22;4375;52.486;13.424;2022-11-03T03:52:36;7.50;99.90
8676;DHT22;4375;52.486;13.424;2022-11-03T03:55:03;7.50;99.90
8676;DHT22;4375;52.486;13.424;2022-11-03T03:57:31;7.50;99.90
8676;DHT22;4375;52.486;13.424;2022-11-03T03:59:57;7.40;99.90
8676;DHT22;4375;52.486;13.424;2022-11-03T04:02:23;7.50;99.90
8676;DHT22;4375;52.486;13.424;2022-11-03T04:04:48;7.40;99.90
8676;DHT22;4375;52.486;13.424;2022-11-03T04:07:14;7.40;99.90
8676;DHT22;4375;52.486;13.424;2022-11-03T04:09:59;7.50;99.90
8676;DHT22;4375;52.486;13.424;2022-11-03T04:12:24;7.40;99.90
8676;DHT22;4375;52.486;13.424;2022-11-03T04:15:11;7.30;99.90
8676;DHT22;4375;52.486;13.424;2022-11-03T04:17:55;7.30;99.90
8676;DHT22;4375;52.486;13.424;2022-11-03T04:20:39;7.30;99.90
8676;DHT22;4375;52.486;13.424;2022-11-03T04:23:23;7.20;99.90
8676;DHT22;4375;52.486;13.424;2022-11-03T04:25:52;7.20;99.90
8676;DHT22;4375;52.486;13.424;2022-11-03T04:28:18;7.10;99.90
8676;DHT22;4375;52.486;13.424;2022-11-03T04:30:44;7.10;99.90
8676;DHT22;4375;52.486;13.424;2022-11-03T04:33:15;7.10;99.90
8676;DHT22;4375;52.486;13.424;2022-11-03T04:35:42;7.10;99.90
8676;DHT22;4375;52.486;13.424;2022-11-03T04:40:45;7.00;99.90
8676;DHT22;4375;52.486;13.424;2022-11-03T04:43:17;7.00;99.90
8676;DHT22;4375;52.486;13.424;2022-11-03T04:45:45;7.00;99.90
8676;DHT22;4375;52.486;13.424;2022-11-03T04:48:13;6.90;99.90
8676;DHT22;4375;52.486;13.424;2022-11-03T04:50:40;7.00;99.90
8676;DHT22;4375;52.486;13.424;2022-11-03T04:53:12;7.00;99.90
8676;DHT22;4375;52.486;13.424;2022-11-03T04:55:39;7.00;99.90
8676;DHT22;4375;52.486;13.424;2022-11-03T04:58:27;7.00;99.90
8676;DHT22;4375;52.486;13.424;2022-11-03T05:00:56;7.00;99.90
8676;DHT22;4375;52.486;13.424;2022-11-03T05:03:26;6.90;99.90
8676;DHT22;4375;52.486;13.424;2022-11-03T05:05:54;6.90;99.90
8676;DHT22;4375;52.486;13.424;2022-11-03T05:08:20;6.90;99.90
8676;DHT22;4375;52.486;13.424;2022-11-03T05:10:47;6.80;99.90
8676;DHT22;4375;52.486;13.424;2022-11-03T05:13:23;6.80;99.90
8676;DHT22;4375;52.486;13.424;2022-11-03T05:15:51;6.70;99.90
8676;DHT22;4375;52.486;13.424;2022-11-03T05:18:34;6.80;99.90
8676;DHT22;4375;52.486;13.424;2022-11-03T05:21:21;6.80;99.90
8676;DHT22;4375;52.486;13.424;2022-11-03T05:24:01;6.80;99.90
8676;DHT22;4375;52.486;13.424;2022-11-03T05:26:30;6.70;99.90
8676;DHT22;4375;52.486;13.424;2022-11-03T05:29:18;6.70;99.90
8676;DHT22;4375;52.486;13.424;2022-11-03T05:31:46;6.70;99.90
8676;DHT22;4375;52.486;13.424;2022-11-03T05:34:30;6.70;99.90
8676;DHT22;4375;52.486;13.424;2022-11-03T05:37:19;6.80;99.90
8676;DHT22;4375;52.486;13.424;2022-11-03T05:39:47;6.70;99.90
8676;DHT22;4375;52.486;13.424;2022-11-03T05:42:24;6.70;99.90
8676;DHT22;4375;52.486;13.424;2022-11-03T05:44:52;6.70;99.90
8676;DHT22;4375;52.486;13.424;2022-11-03T05:47:20;6.70;99.90
8676;DHT22;4375;52.486;13.424;2022-11-03T05:49:53;6.70;99.90
8676;DHT22;4375;52.486;13.424;2022-11-03T05:52:22;6.60;99.90
8676;DHT22;4375;52.486;13.424;2022-11-03T05:54:49;6.60;99.90
8676;DHT22;4375;52.486;13.424;2022-11-03T05:57:15;6.50;99.90
8676;DHT22;4375;52.486;13.424;2022-11-03T05:59:44;6.50;99.90
8676;DHT22;4375;52.486;13.424;2022-11-03T06:02:40;6.50;99.90
8676;DHT22;4375;52.486;13.424;2022-11-03T06:05:23;6.50;99.90
8676;DHT22;4375;52.486;13.424;2022-11-03T06:07:54;6.60;99.90
8676;DHT22;4375;52.486;13.424;2022-11-03T06:10:27;6.50;99.90
8676;DHT22;4375;52.486;13.424;2022-11-03T06:12:57;6.50;99.90
8676;DHT22;4375;52.486;13.424;2022-11-03T06:15:33;6.50;99.90
8676;DHT22;4375;52.486;13.424;2022-11-03T06:17:59;6.60;99.90
8676;DHT22;4375;52.486;13.424;2022-11-03T06:20:25;6.60;99.90
8676;DHT22;4375;52.486;13.424;2022-11-03T06:22:53;6.60;99.90
8676;DHT22;4375;52.486;13.424;2022-11-03T06:25:22;6.70;99.90
8676;DHT22;4375;52.486;13.424;2022-11-03T06:27:48;6.70;99.90
8676;DHT22;4375;52.486;13.424;2022-11-03T06:30:25;6.70;99.90
8676;DHT22;4375;52.486;13.424;2022-11-03T06:32:51;6.70;99.90
8676;DHT22;4375;52.486;13.424;2022-11-03T06:35:18;6.80;99.90
8676;DHT22;4375;52.486;13.424;2022-11-03T06:37:44;6.80;99.90
8676;DHT22;4375;52.486;13.424;2022-11-03T06:42:37;6.80;99.90
8676;DHT22;4375;52.486;13.424;2022-11-03T06:47:39;6.80;99.90
8676;DHT22;4375;52.486;13.424;2022-11-03T06:52:54;6.80;99.90
8676;DHT22;4375;52.486;13.424;2022-11-03T06:55:27;6.90;99.90
8676;DHT22;4375;52.486;13.424;2022-11-03T06:57:57;6.90;99.90
8676;DHT22;4375;52.486;13.424;2022-11-03T07:00:26;6.80;99.90
8676;DHT22;4375;52.486;13.424;2022-11-03T07:03:17;6.90;99.90
8676;DHT22;4375;52.486;13.424;2022-11-03T07:05:45;6.90;99.90
8676;DHT22;4375;52.486;13.424;2022-11-03T07:10:44;6.90;99.90
8676;DHT22;4375;52.486;13.424;2022-11-03T07:13:17;6.90;99.90
8676;DHT22;4375;52.486;13.424;2022-11-03T07:15:44;6.80;99.90
8676;DHT22;4375;52.486;13.424;2022-11-03T07:18:34;6.90;99.90
8676;DHT22;4375;52.486;13.424;2022-11-03T07:21:24;7.00;99.90
8676;DHT22;4375;52.486;13.424;2022-11-03T07:23:53;7.10;99.90
8676;DHT22;4375;52.486;13.424;2022-11-03T07:26:19;7.10;99.90
8676;DHT22;4375;52.486;13.424;2022-11-03T07:28:45;7.10;99.90
8676;DHT22;4375;52.486;13.424;2022-11-03T07:31:20;7.20;99.90
8676;DHT22;4375;52.486;13.424;2022-11-03T07:33:46;7.30;99.90
8676;DHT22;4375;52.486;13.424;2022-11-03T07:36:19;7.30;99.90
8676;DHT22;4375;52.486;13.424;2022-11-03T07:38:47;7.50;99.90
8676;DHT22;4375;52.486;13.424;2022-11-03T07:41:18;7.60;99.90
8676;DHT22;4375;52.486;13.424;2022-11-03T07:43:58;7.70;99.90
8676;DHT22;4375;52.486;13.424;2022-11-03T07:46:25;7.80;99.90
8676;DHT22;4375;52.486;13.424;2022-11-03T07:48:58;7.80;99.90
8676;DHT22;4375;52.486;13.424;2022-11-03T07:51:38;7.90;99.90
8676;DHT22;4375;52.486;13.424;2022-11-03T07:54:11;8.00;99.90
8676;DHT22;4375;52.486;13.424;2022-11-03T07:56:45;8.10;99.90
8676;DHT22;4375;52.486;13.424;2022-11-03T07:59:14;8.20;99.90
8676;DHT22;4375;52.486;13.424;2022-11-03T08:01:55;8.20;99.90
8676;DHT22;4375;52.486;13.424;2022-11-03T08:04:40;8.40;99.90
8676;DHT22;4375;52.486;13.424;2022-11-03T08:07:06;8.40;99.90
8676;DHT22;4375;52.486;13.424;2022-11-03T08:09:32;8.50;99.90
8676;DHT22;4375;52.486;13.424;2022-11-03T08:11:57;8.60;99.90
8676;DHT22;4375;52.486;13.424;2022-11-03T08:14:23;8.60;99.90
8676;DHT22;4375;52.486;13.424;2022-11-03T08:16:48;8.80;99.90
8676;DHT22;4375;52.486;13.424;2022-11-03T08:19:14;8.80;99.90
8676;DHT22;4375;52.486;13.424;2022-11-03T08:21:40;8.80;99.90
8676;DHT22;4375;52.486;13.424;2022-11-03T08:24:23;8.90;99.90
8676;DHT22;4375;52.486;13.424;2022-11-03T08:26:48;9.00;99.90
8676;DHT22;4375;52.486;13.424;2022-11-03T08:29:14;9.00;99.90
8676;DHT22;4375;52.486;13.424;2022-11-03T08:31:42;9.20;99.90
8676;DHT22;4375;52.486;13.424;2022-11-03T08:34:08;9.30;99.90
8676;DHT22;4375;52.486;13.424;2022-11-03T08:36:34;9.20;99.90
8676;DHT22;4375;52.486;13.424;2022-11-03T08:38:59;9.30;99.90
8676;DHT22;4375;52.486;13.424;2022-11-03T08:41:25;9.30;99.90
8676;DHT22;4375;52.486;13.424;2022-11-03T08:43:53;9.30;99.90
8676;DHT22;4375;52.486;13.424;2022-11-03T08:46:19;9.30;99.90
8676;DHT22;4375;52.486;13.424;2022-11-03T08:48:45;9.40;99.90
8676;DHT22;4375;52.486;13.424;2022-11-03T08:51:11;9.40;99.90
8676;DHT22;4375;52.486;13.424;2022-11-03T08:53:38;9.50;99.90
8676;DHT22;4375;52.486;13.424;2022-11-03T08:56:04;9.60;99.90
8676;DHT22;4375;52.486;13.424;2022-11-03T08:58:30;9.80;99.90
8676;DHT22;4375;52.486;13.424;2022-11-03T09:00:56;9.90;99.90
8676;DHT22;4375;52.486;13.424;2022-11-03T09:03:22;9.80;99.90
8676;DHT22;4375;52.486;13.424;2022-11-03T09:05:48;9.90;99.90
8676;DHT22;4375;52.486;13.424;2022-11-03T09:08:13;10.10;99.90
8676;DHT22;4375;52.486;13.424;2022-11-03T09:10:39;10.10;99.90
8676;DHT22;4375;52.486;13.424;2022-11-03T09:13:05;10.20;99.90
8676;DHT22;4375;52.486;13.424;2022-11-03T09:15:31;10.20;99.90
8676;DHT22;4375;52.486;13.424;2022-11-03T09:17:57;10.30;99.90
8676;DHT22;4375;52.486;13.424;2022-11-03T09:20:22;10.50;99.90
8676;DHT22;4375;52.486;13.424;2022-11-03T09:22:48;10.60;99.90
8676;DHT22;4375;52.486;13.424;2022-11-03T09:25:14;10.60;99.90
8676;DHT22;4375;52.486;13.424;2022-11-03T09:27:40;10.70;99.90
8676;DHT22;4375;52.486;13.424;2022-11-03T09:30:06;10.80;99.90
8676;DHT22;4375;52.486;13.424;2022-11-03T09:32:31;10.80;99.90
8676;DHT22;4375;52.486;13.424;2022-11-03T09:34:57;10.80;99.90
8676;DHT22;4375;52.486;13.424;2022-11-03T09:37:23;10.80;99.90
8676;DHT22;4375;52.486;13.424;2022-11-03T09:42:36;10.90;99.90
8676;DHT22;4375;52.486;13.424;2022-11-03T09:49:18;10.80;99.90
8676;DHT22;4375;52.486;13.424;2022-11-03T09:51:47;10.80;99.90
8676;DHT22;4375;52.486;13.424;2022-11-03T09:54:49;10.80;99.90
8676;DHT22;4375;52.486;13.424;2022-11-03T09:57:27;10.80;99.90
8676;DHT22;4375;52.486;13.424;2022-11-03T10:00:44;10.90;99.90
8676;DHT22;4375;52.486;13.424;2022-11-03T10:03:41;11.10;99.90
8676;DHT22;4375;52.486;13.424;2022-11-03T10:06:28;11.20;99.90
8676;DHT22;4375;52.486;13.424;2022-11-03T10:09:31;11.20;99.90
8676;DHT22;4375;52.486;13.424;2022-11-03T10:15:47;11.30;99.90
8676;DHT22;4375;52.486;13.424;2022-11-03T10:18:13;11.40;99.90
8676;DHT22;4375;52.486;13.424;2022-11-03T10:20:39;11.40;99.90
8676;DHT22;4375;52.486;13.424;2022-11-03T10:23:07;11.50;99.90
8676;DHT22;4375;52.486;13.424;2022-11-03T10:25:43;11.50;99.90
8676;DHT22;4375;52.486;13.424;2022-11-03T10:33:33;11.70;99.90
8676;DHT22;4375;52.486;13.424;2022-11-03T10:36:25;11.70;99.90
8676;DHT22;4375;52.486;13.424;2022-11-03T10:38:52;11.80;99.90
8676;DHT22;4375;52.486;13.424;2022-11-03T10:41:20;11.90;99.90
8676;DHT22;4375;52.486;13.424;2022-11-03T10:44:17;12.00;99.90
8676;DHT22;4375;52.486;13.424;2022-11-03T10:47:08;12.10;99.90
8676;DHT22;4375;52.486;13.424;2022-11-03T10:49:44;12.10;99.90
8676;DHT22;4375;52.486;13.424;2022-11-03T10:54:39;12.20;99.90
8676;DHT22;4375;52.486;13.424;2022-11-03T10:57:05;12.20;99.90
8676;DHT22;4375;52.486;13.424;2022-11-03T10:59:35;12.30;99.90
8676;DHT22;4375;52.486;13.424;2022-11-03T11:02:09;12.20;99.90
8676;DHT22;4375;52.486;13.424;2022-11-03T11:04:37;12.20;99.90
8676;DHT22;4375;52.486;13.424;2022-11-03T11:07:22;12.30;99.90
8676;DHT22;4375;52.486;13.424;2022-11-03T11:09:50;12.30;99.90
8676;DHT22;4375;52.486;13.424;2022-11-03T11:12:23;12.20;99.90
8676;DHT22;4375;52.486;13.424;2022-11-03T11:15:00;12.30;99.90
8676;DHT22;4375;52.486;13.424;2022-11-03T11:22:45;12.40;99.90
8676;DHT22;4375;52.486;13.424;2022-11-03T11:25:11;12.40;99.90
8676;DHT22;4375;52.486;13.424;2022-11-03T11:32:59;12.30;99.90
8676;DHT22;4375;52.486;13.424;2022-11-03T11:37:51;12.30;99.90
8676;DHT22;4375;52.486;13.424;2022-11-03T11:46:54;12.50;99.90
8676;DHT22;4375;52.486;13.424;2022-11-03T11:51:37;12.60;99.90
8676;DHT22;4375;52.486;13.424;2022-11-03T11:54:07;12.60;99.90
8676;DHT22;4375;52.486;13.424;2022-11-03T11:56:41;12.50;99.90
8676;DHT22;4375;52.486;13.424;2022-11-03T11:59:21;12.50;99.90
8676;DHT22;4375;52.486;13.424;2022-11-03T12:01:52;12.70;99.90
8676;DHT22;4375;52.486;13.424;2022-11-03T12:06:46;12.60;99.90
8676;DHT22;4375;52.486;13.424;2022-11-03T12:22:10;12.40;99.90
8676;DHT22;4375;52.486;13.424;2022-11-03T12:29:45;12.40;99.90
8676;DHT22;4375;52.486;13.424;2022-11-03T12:32:11;12.30;99.90
8676;DHT22;4375;52.486;13.424;2022-11-03T12:34:36;12.40;99.90
8676;DHT22;4375;52.486;13.424;2022-11-03T12:37:02;12.50;99.90
8676;DHT22;4375;52.486;13.424;2022-11-03T12:39:33;12.50;99.90
8676;DHT22;4375;52.486;13.424;2022-11-03T12:42:09;12.50;99.90
8676;DHT22;4375;52.486;13.424;2022-11-03T12:44:39;12.50;99.90
8676;DHT22;4375;52.486;13.424;2022-11-03T12:47:05;12.60;99.90
8676;DHT22;4375;52.486;13.424;2022-11-03T12:49:33;12.70;99.90
8676;DHT22;4375;52.486;13.424;2022-11-03T12:52:09;12.70;99.90
8676;DHT22;4375;52.486;13.424;2022-11-03T12:54:39;12.70;99.90
8676;DHT22;4375;52.486;13.424;2022-11-03T12:57:11;12.60;99.90
8676;DHT22;4375;52.486;13.424;2022-11-03T12:59:42;12.70;99.90
8676;DHT22;4375;52.486;13.424;2022-11-03T13:02:09;12.70;99.90
8676;DHT22;4375;52.486;13.424;2022-11-03T13:04:37;12.70;99.90
8676;DHT22;4375;52.486;13.424;2022-11-03T13:07:03;12.80;99.90
8676;DHT22;4375;52.486;13.424;2022-11-03T13:09:29;12.80;99.90
8676;DHT22;4375;52.486;13.424;2022-11-03T13:11:54;12.80;99.90
8676;DHT22;4375;52.486;13.424;2022-11-03T13:14:38;12.90;99.90
8676;DHT22;4375;52.486;13.424;2022-11-03T13:17:04;12.90;99.90
8676;DHT22;4375;52.486;13.424;2022-11-03T13:19:29;12.80;99.90
8676;DHT22;4375;52.486;13.424;2022-11-03T13:21:55;12.80;99.90
8676;DHT22;4375;52.486;13.424;2022-11-03T13:24:21;12.70;99.90
8676;DHT22;4375;52.486;13.424;2022-11-03T13:26:46;12.70;99.90
8676;DHT22;4375;52.486;13.424;2022-11-03T13:29:12;12.70;99.90
8676;DHT22;4375;52.486;13.424;2022-11-03T13:31:37;12.70;99.90
8676;DHT22;4375;52.486;13.424;2022-11-03T13:34:03;12.80;99.90
8676;DHT22;4375;52.486;13.424;2022-11-03T13:36:32;12.80;99.90
8676;DHT22;4375;52.486;13.424;2022-11-03T13:39:00;12.80;99.90
8676;DHT22;4375;52.486;13.424;2022-11-03T13:41:58;12.80;99.90
8676;DHT22;4375;52.486;13.424;2022-11-03T13:44:31;12.90;99.90
8676;DHT22;4375;52.486;13.424;2022-11-03T13:47:00;12.90;99.90
8676;DHT22;4375;52.486;13.424;2022-11-03T13:49:30;12.90;99.90
8676;DHT22;4375;52.486;13.424;2022-11-03T13:51:56;12.90;99.90
8676;DHT22;4375;52.486;13.424;2022-11-03T13:54:42;12.80;99.90
8676;DHT22;4375;52.486;13.424;2022-11-03T13:57:18;12.80;99.90
8676;DHT22;4375;52.486;13.424;2022-11-03T14:00:07;12.80;99.90
8676;DHT22;4375;52.486;13.424;2022-11-03T14:02:53;12.80;99.90
8676;DHT22;4375;52.486;13.424;2022-11-03T14:05:27;12.90;99.90
8676;DHT22;4375;52.486;13.424;2022-11-03T14:07:55;12.90;99.90
8676;DHT22;4375;52.486;13.424;2022-11-03T14:20:14;12.70;99.90
8676;DHT22;4375;52.486;13.424;2022-11-03T14:22:40;12.70;99.90
8676;DHT22;4375;52.486;13.424;2022-11-03T14:25:06;12.70;99.90
8676;DHT22;4375;52.486;13.424;2022-11-03T14:27:32;12.60;99.90
8676;DHT22;4375;52.486;13.424;2022-11-03T14:29:58;12.70;99.90
8676;DHT22;4375;52.486;13.424;2022-11-03T14:32:23;12.70;99.90
8676;DHT22;4375;52.486;13.424;2022-11-03T14:34:49;12.70;99.90
8676;DHT22;4375;52.486;13.424;2022-11-03T14:37:15;12.60;99.90
8676;DHT22;4375;52.486;13.424;2022-11-03T14:39:40;12.60;99.90
8676;DHT22;4375;52.486;13.424;2022-11-03T14:42:09;12.60;99.90
8676;DHT22;4375;52.486;13.424;2022-11-03T14:44:39;12.50;99.90
8676;DHT22;4375;52.486;13.424;2022-11-03T14:47:11;12.50;99.90
8676;DHT22;4375;52.486;13.424;2022-11-03T14:49:37;12.40;99.90
8676;DHT22;4375;52.486;13.424;2022-11-03T14:52:04;12.40;99.90
8676;DHT22;4375;52.486;13.424;2022-11-03T14:54:31;12.40;99.90
8676;DHT22;4375;52.486;13.424;2022-11-03T14:56:57;12.40;99.90
8676;DHT22;4375;52.486;13.424;2022-11-03T14:59:23;12.30;99.90
8676;DHT22;4375;52.486;13.424;2022-11-03T15:01:49;12.30;99.90
8676;DHT22;4375;52.486;13.424;2022-11-03T15:04:16;12.30;99.90
8676;DHT22;4375;52.486;13.424;2022-11-03T15:06:42;12.20;99.90
8676;DHT22;4375;52.486;13.424;2022-11-03T15:09:09;12.20;99.90
8676;DHT22;4375;52.486;13.424;2022-11-03T15:11:36;12.20;99.90
8676;DHT22;4375;52.486;13.424;2022-11-03T15:14:02;12.20;99.90
8676;DHT22;4375;52.486;13.424;2022-11-03T15:16:28;12.10;99.90
8676;DHT22;4375;52.486;13.424;2022-11-03T15:18:54;12.10;99.90
8676;DHT22;4375;52.486;13.424;2022-11-03T15:21:19;12.10;99.90
8676;DHT22;4375;52.486;13.424;2022-11-03T15:23:45;12.00;99.90
8676;DHT22;4375;52.486;13.424;2022-11-03T15:26:11;12.00;99.90
8676;DHT22;4375;52.486;13.424;2022-11-03T15:28:37;12.00;99.90
8676;DHT22;4375;52.486;13.424;2022-11-03T15:31:03;11.90;99.90
8676;DHT22;4375;52.486;13.424;2022-11-03T15:33:29;12.00;99.90
8676;DHT22;4375;52.486;13.424;2022-11-03T15:35:55;12.00;99.90
8676;DHT22;4375;52.486;13.424;2022-11-03T15:38:20;11.90;99.90
8676;DHT22;4375;52.486;13.424;2022-11-03T15:40:46;11.90;99.90
8676;DHT22;4375;52.486;13.424;2022-11-03T15:43:12;11.90;99.90
8676;DHT22;4375;52.486;13.424;2022-11-03T15:45:38;11.80;99.90
8676;DHT22;4375;52.486;13.424;2022-11-03T15:48:05;11.80;99.90
8676;DHT22;4375;52.486;13.424;2022-11-03T15:50:31;11.80;99.90
8676;DHT22;4375;52.486;13.424;2022-11-03T15:52:57;11.80;99.90
8676;DHT22;4375;52.486;13.424;2022-11-03T15:55:22;11.70;99.90
8676;DHT22;4375;52.486;13.424;2022-11-03T15:57:49;11.80;99.90
8676;DHT22;4375;52.486;13.424;2022-11-03T16:00:18;11.70;99.90
8676;DHT22;4375;52.486;13.424;2022-11-03T16:02:47;11.70;99.90
8676;DHT22;4375;52.486;13.424;2022-11-03T16:05:17;11.70;99.90
8676;DHT22;4375;52.486;13.424;2022-11-03T16:07:43;11.80;99.90
8676;DHT22;4375;52.486;13.424;2022-11-03T16:10:08;11.80;99.90
8676;DHT22;4375;52.486;13.424;2022-11-03T16:12:37;11.70;99.90
8676;DHT22;4375;52.486;13.424;2022-11-03T16:15:05;11.70;99.90
8676;DHT22;4375;52.486;13.424;2022-11-03T16:17:31;11.70;99.90
8676;DHT22;4375;52.486;13.424;2022-11-03T16:19:57;11.70;99.90
8676;DHT22;4375;52.486;13.424;2022-11-03T16:22:23;11.80;99.90
8676;DHT22;4375;52.486;13.424;2022-11-03T16:24:48;11.70;99.90
8676;DHT22;4375;52.486;13.424;2022-11-03T16:27:14;11.60;99.90
8676;DHT22;4375;52.486;13.424;2022-11-03T16:29:45;11.70;99.90
8676;DHT22;4375;52.486;13.424;2022-11-03T16:32:13;11.60;99.90
8676;DHT22;4375;52.486;13.424;2022-11-03T16:34:38;11.60;99.90
8676;DHT22;4375;52.486;13.424;2022-11-03T16:37:06;11.60;99.90
8676;DHT22;4375;52.486;13.424;2022-11-03T16:39:32;11.50;99.90
8676;DHT22;4375;52.486;13.424;2022-11-03T16:41:58;11.60;99.90
8676;DHT22;4375;52.486;13.424;2022-11-03T16:44:24;11.60;99.90
8676;DHT22;4375;52.486;13.424;2022-11-03T16:46:49;11.50;99.90
8676;DHT22;4375;52.486;13.424;2022-11-03T16:49:15;11.60;99.90
8676;DHT22;4375;52.486;13.424;2022-11-03T16:51:41;11.60;99.90
8676;DHT22;4375;52.486;13.424;2022-11-03T16:54:06;11.50;99.90
8676;DHT22;4375;52.486;13.424;2022-11-03T16:56:32;11.50;99.90
8676;DHT22;4375;52.486;13.424;2022-11-03T16:58:58;11.50;99.90
8676;DHT22;4375;52.486;13.424;2022-11-03T17:01:23;11.50;99.90
8676;DHT22;4375;52.486;13.424;2022-11-03T17:03:49;11.50;99.90
8676;DHT22;4375;52.486;13.424;2022-11-03T17:06:16;11.40;99.90
8676;DHT22;4375;52.486;13.424;2022-11-03T17:08:42;11.40;99.90
8676;DHT22;4375;52.486;13.424;2022-11-03T17:11:07;11.40;99.90
8676;DHT22;4375;52.486;13.424;2022-11-03T17:13:33;11.40;99.90
8676;DHT22;4375;52.486;13.424;2022-11-03T17:15:59;11.40;99.90
8676;DHT22;4375;52.486;13.424;2022-11-03T17:18:24;11.40;99.90
8676;DHT22;4375;52.486;13.424;2022-11-03T17:20:50;11.40;99.90
8676;DHT22;4375;52.486;13.424;2022-11-03T17:23:15;11.40;99.90
8676;DHT22;4375;52.486;13.424;2022-11-03T17:25:41;11.40;99.90
8676;DHT22;4375;52.486;13.424;2022-11-03T17:28:09;11.30;99.90
8676;DHT22;4375;52.486;13.424;2022-11-03T17:30:35;11.30;99.90
8676;DHT22;4375;52.486;13.424;2022-11-03T17:33:07;11.30;99.90
8676;DHT22;4375;52.486;13.424;2022-11-03T17:35:41;11.30;99.90
8676;DHT22;4375;52.486;13.424;2022-11-03T17:38:13;11.30;99.90
8676;DHT22;4375;52.486;13.424;2022-11-03T17:40:41;11.30;99.90
8676;DHT22;4375;52.486;13.424;2022-11-03T17:45:41;11.30;99.90
8676;DHT22;4375;52.486;13.424;2022-11-03T17:48:07;11.30;99.90
8676;DHT22;4375;52.486;13.424;2022-11-03T17:50:33;11.30;99.90
8676;DHT22;4375;52.486;13.424;2022-11-03T17:53:00;11.30;99.90
8676;DHT22;4375;52.486;13.424;2022-11-03T17:55:27;11.30;99.90
8676;DHT22;4375;52.486;13.424;2022-11-03T17:57:56;11.30;99.90